Campina da Lagoa, Brazil
Current Conditions -  °F | °C
As of 12:38 AM on Wednesday 22 Oct 2014 (Local Time) from SBCA Reporting Station
Clear Clear  
Wind Chill: 70°   Ceiling: Unl
Heat Index: 70°   Visibility: 6mi
Dew Point: 59°   Wind: 18mph
Humidity: 68%   Direction: 100°E
Pressure: 30.12"   Gusts: NA
Location:  24.59°S, 52.8°W
Report Text: SBCA 220238Z 10016KT CAVOK 21/15 Q1020
Loading
Personal Weather Stations






























Interactive Weather Map
Tropical Storm Tracking
New forecast layout! Learn more

10-Day Weather Forecast

Advertisements
Track Severe Weather on mobile